createdAt,value
2022-08-29T00:01:13.978Z,11.88
2022-08-29T00:03:42.086Z,13.82
2022-08-29T00:06:10.582Z,15.48
2022-08-29T00:08:37.586Z,16.75
2022-08-29T00:11:06.736Z,16.58
2022-08-29T00:13:34.425Z,12.50
2022-08-29T00:16:01.459Z,17.20
2022-08-29T00:18:28.708Z,16.73
2022-08-29T00:20:55.877Z,13.57
2022-08-29T00:23:22.871Z,12.10
2022-08-29T00:25:49.967Z,12.27
2022-08-29T00:28:16.883Z,16.10
2022-08-29T00:30:44.549Z,17.05
2022-08-29T00:33:11.632Z,14.35
2022-08-29T00:35:40.692Z,18.60
2022-08-29T00:38:10.306Z,14.52
2022-08-29T00:40:40.682Z,15.85
2022-08-29T00:43:08.904Z,15.07
2022-08-29T00:45:39.189Z,17.42
2022-08-29T00:48:14.681Z,20.67
2022-08-29T00:50:55.253Z,14.35
2022-08-29T00:53:34.858Z,17.88
2022-08-29T00:56:03.307Z,18.45
2022-08-29T00:58:54.233Z,14.18
2022-08-29T01:01:23.289Z,16.48
2022-08-29T01:03:51.553Z,22.05
2022-08-29T01:06:20.032Z,18.95
2022-08-29T01:08:47.487Z,15.68
2022-08-29T01:11:35.974Z,14.80
2022-08-29T01:14:04.728Z,14.82
2022-08-29T01:16:32.673Z,15.95
2022-08-29T01:19:14.530Z,21.00
2022-08-29T01:21:47.379Z,17.67
2022-08-29T01:24:39.557Z,15.73
2022-08-29T01:27:07.287Z,14.38
2022-08-29T01:29:34.853Z,18.20
2022-08-29T01:32:02.152Z,14.90
2022-08-29T01:34:30.100Z,18.55
2022-08-29T01:37:00.330Z,13.30
2022-08-29T01:39:34.201Z,16.48
2022-08-29T01:42:04.064Z,13.80
2022-08-29T01:44:31.479Z,19.27
2022-08-29T01:47:02.868Z,16.92
2022-08-29T01:49:35.401Z,10.80
2022-08-29T01:52:07.560Z,19.30
2022-08-29T01:54:34.705Z,18.48
2022-08-29T01:57:02.062Z,22.52
2022-08-29T01:59:31.730Z,19.80
2022-08-29T02:02:03.582Z,19.60
2022-08-29T02:04:30.823Z,21.70
2022-08-29T02:06:58.170Z,14.32
2022-08-29T02:09:27.744Z,17.75
2022-08-29T02:11:56.051Z,16.10
2022-08-29T02:14:23.760Z,18.23
2022-08-29T02:16:50.987Z,20.50
2022-08-29T02:19:18.219Z,22.85
2022-08-29T02:21:45.559Z,19.08
2022-08-29T02:24:25.583Z,14.02
2022-08-29T02:26:54.746Z,15.13
2022-08-29T02:29:22.168Z,13.50
2022-08-29T02:31:49.253Z,16.88
2022-08-29T02:34:19.852Z,18.95
2022-08-29T02:36:49.058Z,26.23
2022-08-29T02:39:18.017Z,18.17
2022-08-29T02:41:45.036Z,23.83
2022-08-29T02:44:12.014Z,19.98
2022-08-29T02:46:39.132Z,15.57
2022-08-29T02:49:06.497Z,20.60
2022-08-29T02:51:34.810Z,18.88
2022-08-29T02:54:02.386Z,14.75
2022-08-29T02:56:29.979Z,18.73
2022-08-29T02:58:57.285Z,15.68
2022-08-29T03:01:26.496Z,18.33
2022-08-29T03:03:53.843Z,16.63
2022-08-29T03:06:22.588Z,15.65
2022-08-29T03:08:50.572Z,16.88
2022-08-29T03:11:18.194Z,17.55
2022-08-29T03:13:45.589Z,20.13
2022-08-29T03:16:13.510Z,16.50
2022-08-29T03:18:40.550Z,15.02
2022-08-29T03:21:15.853Z,13.32
2022-08-29T03:23:42.837Z,18.05
2022-08-29T03:26:09.843Z,16.38
2022-08-29T03:28:36.742Z,18.65
2022-08-29T03:31:03.937Z,14.27
2022-08-29T03:33:30.962Z,9.25
2022-08-29T03:35:57.886Z,16.02
2022-08-29T03:38:25.127Z,17.70
2022-08-29T03:40:52.077Z,15.15
2022-08-29T03:43:22.862Z,21.83
2022-08-29T03:45:49.840Z,13.70
2022-08-29T03:48:16.723Z,19.42
2022-08-29T03:50:43.701Z,17.55
2022-08-29T03:53:10.807Z,17.20
2022-08-29T03:55:38.491Z,17.85
2022-08-29T03:58:05.824Z,15.02
2022-08-29T04:00:32.857Z,17.63
2022-08-29T04:03:00.185Z,15.23
2022-08-29T04:05:27.270Z,13.68
2022-08-29T04:07:59.281Z,13.38
2022-08-29T04:10:31.911Z,17.05
2022-08-29T04:12:59.614Z,15.38
2022-08-29T04:15:28.494Z,18.88
2022-08-29T04:17:58.576Z,14.98
2022-08-29T04:20:29.559Z,18.92
2022-08-29T04:22:58.020Z,17.02
2022-08-29T04:25:26.970Z,16.30
2022-08-29T04:27:55.465Z,19.88
2022-08-29T04:30:24.891Z,14.35
2022-08-29T04:32:52.514Z,14.00
2022-08-29T04:35:20.029Z,19.73
2022-08-29T04:37:47.324Z,15.65
2022-08-29T04:40:16.842Z,15.02
2022-08-29T04:42:45.135Z,15.32
2022-08-29T04:45:14.394Z,13.40
2022-08-29T04:47:42.714Z,14.65
2022-08-29T04:50:13.297Z,12.07
2022-08-29T04:52:40.949Z,12.70
2022-08-29T04:55:08.740Z,11.55
2022-08-29T04:57:37.016Z,9.82
2022-08-29T05:00:07.622Z,11.07
2022-08-29T05:02:34.646Z,15.23
2022-08-29T05:05:02.186Z,14.05
2022-08-29T05:07:28.988Z,12.25
2022-08-29T05:09:58.826Z,9.45
2022-08-29T05:12:29.292Z,10.98
2022-08-29T05:14:56.683Z,9.35
2022-08-29T05:17:25.847Z,14.13
2022-08-29T05:19:53.355Z,8.27
2022-08-29T05:22:21.313Z,9.27
2022-08-29T05:24:49.677Z,7.15
2022-08-29T05:27:19.763Z,8.88
2022-08-29T05:29:49.008Z,6.68
2022-08-29T05:32:17.556Z,6.28
2022-08-29T05:34:47.901Z,7.45
2022-08-29T05:37:19.400Z,6.70
2022-08-29T05:39:47.380Z,6.63
2022-08-29T05:42:17.104Z,10.20
2022-08-29T05:44:44.476Z,6.22
2022-08-29T05:47:13.515Z,11.50
2022-08-29T05:49:43.037Z,7.93
2022-08-29T05:52:11.374Z,7.85
2022-08-29T05:54:40.957Z,6.53
2022-08-29T05:57:11.102Z,6.78
2022-08-29T05:59:39.285Z,11.70
2022-08-29T06:02:08.485Z,9.40
2022-08-29T06:04:35.967Z,9.20
2022-08-29T06:07:04.225Z,6.88
2022-08-29T06:09:31.395Z,6.90
2022-08-29T06:11:58.671Z,7.68
2022-08-29T06:14:26.215Z,7.80
2022-08-29T06:16:54.705Z,7.53
2022-08-29T06:19:22.965Z,7.57
2022-08-29T06:21:50.259Z,8.18
2022-08-29T06:24:17.959Z,7.75
2022-08-29T06:26:45.471Z,9.35
2022-08-29T06:29:14.734Z,10.50
2022-08-29T06:31:42.236Z,11.02
2022-08-29T06:34:09.861Z,6.47
2022-08-29T06:36:37.850Z,6.50
2022-08-29T06:39:07.759Z,10.57
2022-08-29T06:41:35.609Z,14.38
2022-08-29T06:44:03.757Z,12.85
2022-08-29T06:46:34.584Z,9.77
2022-08-29T06:49:04.271Z,10.85
2022-08-29T06:51:33.252Z,7.63
2022-08-29T06:54:02.272Z,6.00
2022-08-29T06:56:29.849Z,5.18
2022-08-29T06:58:56.950Z,6.82
2022-08-29T07:01:24.275Z,4.57
2022-08-29T07:03:54.281Z,5.43
2022-08-29T07:06:21.685Z,7.57
2022-08-29T07:08:55.230Z,4.35
2022-08-29T07:11:25.062Z,5.35
2022-08-29T07:13:52.161Z,6.72
2022-08-29T07:16:19.666Z,5.57
2022-08-29T07:18:47.256Z,6.20
2022-08-29T07:21:20.659Z,7.35
2022-08-29T07:23:52.091Z,4.38
2022-08-29T07:26:24.975Z,4.95
2022-08-29T07:28:55.534Z,2.63
2022-08-29T07:31:23.015Z,1.90
2022-08-29T07:33:59.710Z,2.55
2022-08-29T07:36:34.364Z,5.32
2022-08-29T07:39:02.130Z,7.32
2022-08-29T07:41:29.243Z,2.13
2022-08-29T07:43:56.116Z,5.07
2022-08-29T07:46:25.518Z,2.30
2022-08-29T07:48:52.999Z,2.83
2022-08-29T07:51:22.990Z,4.20
2022-08-29T07:53:50.959Z,3.03
2022-08-29T07:56:22.873Z,3.30
2022-08-29T07:58:55.369Z,2.90
2022-08-29T08:01:22.768Z,2.22
2022-08-29T08:03:51.242Z,3.33
2022-08-29T08:06:20.967Z,4.22
2022-08-29T08:08:48.577Z,2.65
2022-08-29T08:11:16.518Z,3.63
2022-08-29T08:13:44.542Z,2.25
2022-08-29T08:16:14.765Z,4.15
2022-08-29T08:18:43.286Z,3.95
2022-08-29T08:21:11.321Z,5.30
2022-08-29T08:23:38.722Z,1.73
2022-08-29T08:26:06.698Z,1.63
2022-08-29T08:28:33.613Z,2.95
2022-08-29T08:31:05.915Z,5.50
2022-08-29T08:33:35.504Z,3.13
2022-08-29T08:36:04.104Z,3.97
2022-08-29T08:38:31.581Z,3.20
2022-08-29T08:41:12.979Z,2.35
2022-08-29T08:43:49.676Z,2.50
2022-08-29T08:46:18.138Z,2.03
2022-08-29T08:48:48.583Z,2.53
2022-08-29T08:51:27.485Z,2.70
2022-08-29T08:53:58.283Z,2.17
2022-08-29T08:56:31.335Z,4.32
2022-08-29T08:59:07.488Z,2.22
2022-08-29T09:01:45.313Z,3.65
2022-08-29T09:04:44.130Z,2.33
2022-08-29T09:07:23.071Z,1.70
2022-08-29T09:10:03.421Z,2.80
2022-08-29T09:12:36.058Z,2.17
2022-08-29T09:17:44.065Z,2.42
2022-08-29T09:20:16.008Z,1.60
2022-08-29T09:22:49.616Z,2.88
2022-08-29T09:25:16.782Z,2.13
2022-08-29T09:27:43.637Z,2.40
2022-08-29T09:30:18.178Z,4.40
2022-08-29T09:33:01.765Z,2.92
2022-08-29T09:35:50.226Z,4.43
2022-08-29T09:38:17.066Z,5.00
2022-08-29T09:40:44.003Z,2.85
2022-08-29T09:43:39.530Z,4.97
2022-08-29T09:46:18.710Z,2.70
2022-08-29T09:48:50.672Z,3.22
2022-08-29T09:51:24.493Z,4.83
2022-08-29T09:54:10.214Z,3.13
2022-08-29T09:56:39.319Z,3.10
2022-08-29T09:59:22.312Z,2.10
2022-08-29T10:01:49.773Z,3.63
2022-08-29T10:04:38.213Z,1.95
2022-08-29T10:07:33.878Z,1.10
2022-08-29T10:10:22.849Z,2.13
2022-08-29T10:13:12.437Z,4.03
2022-08-29T10:15:51.709Z,3.15
2022-08-29T10:18:52.595Z,1.45
2022-08-29T10:21:47.151Z,1.33
2022-08-29T10:24:39.027Z,1.17
2022-08-29T10:27:31.142Z,3.72
2022-08-29T10:30:04.133Z,2.20
2022-08-29T10:32:55.999Z,1.92
2022-08-29T10:35:31.401Z,1.45
2022-08-29T10:38:27.917Z,2.55
2022-08-29T10:41:15.498Z,1.73
2022-08-29T10:44:21.392Z,1.77
2022-08-29T10:47:23.024Z,1.05
2022-08-29T10:49:58.744Z,3.90
2022-08-29T10:52:53.638Z,2.35
2022-08-29T10:55:48.331Z,2.90
2022-08-29T10:58:51.119Z,2.03
2022-08-29T11:01:29.428Z,4.78
2022-08-29T11:04:08.612Z,2.72
2022-08-29T11:06:41.483Z,1.55
2022-08-29T11:09:14.623Z,2.75
2022-08-29T11:12:00.575Z,1.75
2022-08-29T11:14:49.000Z,1.50
2022-08-29T11:17:18.779Z,2.15
2022-08-29T11:20:11.695Z,2.35
2022-08-29T11:22:50.337Z,0.70
2022-08-29T11:25:20.145Z,1.95
2022-08-29T11:28:03.562Z,1.70
2022-08-29T11:30:49.645Z,1.38
2022-08-29T11:33:25.988Z,1.25
2022-08-29T11:36:05.139Z,4.22
2022-08-29T11:38:53.262Z,0.93
2022-08-29T11:41:29.127Z,4.32
2022-08-29T11:44:11.730Z,2.78
2022-08-29T11:46:45.410Z,0.90
2022-08-29T11:49:33.799Z,1.63
2022-08-29T11:52:18.874Z,1.95
2022-08-29T11:55:16.053Z,1.95
2022-08-29T11:57:48.904Z,1.35
2022-08-29T12:03:35.210Z,0.82
2022-08-29T12:06:21.425Z,2.20
2022-08-29T12:09:13.166Z,1.88
2022-08-29T12:11:59.099Z,1.47
2022-08-29T12:14:45.782Z,3.80
2022-08-29T12:17:31.945Z,3.72
2022-08-29T12:20:10.128Z,2.03
2022-08-29T12:22:55.475Z,2.28
2022-08-29T12:25:28.578Z,2.35
2022-08-29T12:28:31.149Z,1.58
2022-08-29T12:30:58.143Z,1.63
2022-08-29T12:34:03.995Z,3.42
2022-08-29T12:36:55.292Z,1.00
2022-08-29T12:39:41.936Z,1.58
2022-08-29T12:42:30.478Z,3.45
2022-08-29T12:45:16.602Z,1.63
2022-08-29T12:47:51.503Z,4.57
2022-08-29T12:50:28.382Z,2.88
2022-08-29T12:53:07.097Z,2.45
2022-08-29T12:55:40.624Z,3.25
2022-08-29T12:58:08.680Z,5.00
2022-08-29T13:00:35.867Z,1.50
2022-08-29T13:03:04.317Z,2.85
2022-08-29T13:05:39.850Z,3.28
2022-08-29T13:08:17.225Z,1.05
2022-08-29T13:11:01.083Z,5.00
2022-08-29T13:13:29.529Z,1.38
2022-08-29T13:16:01.358Z,4.68
2022-08-29T13:18:29.926Z,2.17
2022-08-29T13:21:05.658Z,2.60
2022-08-29T13:23:37.153Z,2.03
2022-08-29T13:26:22.480Z,3.85
2022-08-29T13:29:04.388Z,3.22
2022-08-29T13:31:36.303Z,2.95
2022-08-29T13:34:18.020Z,2.83
2022-08-29T13:37:02.235Z,2.47
2022-08-29T13:39:36.995Z,6.72
2022-08-29T13:42:15.109Z,2.67
2022-08-29T13:44:45.025Z,2.08
2022-08-29T13:47:19.659Z,1.08
2022-08-29T13:49:46.670Z,3.78
2022-08-29T13:52:14.938Z,1.23
2022-08-29T13:54:42.512Z,1.20
2022-08-29T13:57:22.135Z,1.83
2022-08-29T13:59:50.960Z,2.42
2022-08-29T14:02:18.790Z,2.25
2022-08-29T14:04:50.194Z,2.58
2022-08-29T14:07:29.581Z,2.22
2022-08-29T14:09:57.110Z,3.03
2022-08-29T14:12:33.363Z,3.05
2022-08-29T14:15:05.359Z,2.22
2022-08-29T14:17:35.221Z,3.92
2022-08-29T14:20:02.374Z,3.15
2022-08-29T14:22:29.411Z,3.05
2022-08-29T14:25:04.031Z,2.85
2022-08-29T14:27:43.580Z,2.78
2022-08-29T14:30:12.778Z,2.63
2022-08-29T14:32:39.736Z,2.20
2022-08-29T14:35:08.134Z,1.25
2022-08-29T14:37:36.745Z,3.35
2022-08-29T14:40:07.248Z,3.17
2022-08-29T14:42:34.364Z,1.95
2022-08-29T14:45:01.343Z,2.83
2022-08-29T14:47:28.417Z,8.07
2022-08-29T14:49:55.325Z,1.85
2022-08-29T14:52:22.407Z,2.92
2022-08-29T14:54:49.494Z,1.48
2022-08-29T14:57:16.488Z,2.35
2022-08-29T14:59:43.356Z,2.25
2022-08-29T15:02:10.492Z,3.13
2022-08-29T15:04:39.920Z,1.83
2022-08-29T15:07:09.676Z,1.55
2022-08-29T15:09:41.827Z,2.10
2022-08-29T15:12:09.487Z,2.97
2022-08-29T15:14:36.500Z,1.73
2022-08-29T15:17:04.804Z,1.50
2022-08-29T15:20:15.832Z,5.35
2022-08-29T15:22:19.410Z,3.22
2022-08-29T15:24:46.714Z,1.95
2022-08-29T15:27:13.705Z,5.45
2022-08-29T15:29:40.866Z,3.95
2022-08-29T15:32:08.201Z,1.95
2022-08-29T15:34:36.105Z,2.47
2022-08-29T15:37:03.365Z,1.52
2022-08-29T15:39:30.326Z,3.75
2022-08-29T15:42:00.367Z,3.42
2022-08-29T15:44:28.506Z,2.42
2022-08-29T15:46:56.922Z,5.07
2022-08-29T15:49:25.568Z,4.88
2022-08-29T15:51:53.262Z,2.53
2022-08-29T15:54:21.285Z,1.92
2022-08-29T15:56:48.311Z,3.60
2022-08-29T15:59:15.781Z,4.53
2022-08-29T16:01:45.450Z,3.03
2022-08-29T16:04:13.730Z,3.17
2022-08-29T16:06:40.912Z,1.63
2022-08-29T16:09:15.580Z,3.25
2022-08-29T16:11:48.660Z,3.58
2022-08-29T16:14:57.601Z,3.28
2022-08-29T16:17:05.809Z,2.35
2022-08-29T16:19:37.303Z,2.28
2022-08-29T16:22:08.011Z,5.40
2022-08-29T16:24:34.989Z,2.83
2022-08-29T16:27:01.926Z,4.10
2022-08-29T16:29:29.382Z,2.70
2022-08-29T16:32:00.456Z,1.20
2022-08-29T16:34:28.454Z,6.80
2022-08-29T16:36:57.035Z,4.47
2022-08-29T16:39:23.984Z,2.13
2022-08-29T16:41:51.081Z,2.88
2022-08-29T16:44:18.051Z,3.90
2022-08-29T16:46:45.081Z,2.45
2022-08-29T16:49:12.240Z,5.65
2022-08-29T16:51:39.265Z,3.53
2022-08-29T16:54:06.294Z,3.85
2022-08-29T16:56:33.295Z,3.05
2022-08-29T16:59:00.370Z,1.48
2022-08-29T17:01:38.087Z,3.58
2022-08-29T17:04:08.332Z,4.85
2022-08-29T17:06:35.559Z,2.90
2022-08-29T17:09:07.852Z,2.55
2022-08-29T17:11:36.733Z,2.20
2022-08-29T17:14:04.465Z,2.25
2022-08-29T17:16:31.741Z,4.75
2022-08-29T17:18:59.889Z,1.50
2022-08-29T17:21:27.218Z,1.98
2022-08-29T17:23:59.492Z,3.13
2022-08-29T17:28:53.689Z,3.70
2022-08-29T17:31:20.850Z,2.40
2022-08-29T17:33:48.033Z,1.77
2022-08-29T17:36:16.923Z,3.80
2022-08-29T17:38:46.852Z,2.38
2022-08-29T17:41:17.668Z,4.80
2022-08-29T17:43:47.338Z,2.72
2022-08-29T17:46:16.819Z,3.78
2022-08-29T17:48:44.001Z,3.53
2022-08-29T17:51:12.180Z,3.90
2022-08-29T17:53:40.335Z,2.28
2022-08-29T17:56:29.488Z,2.38
2022-08-29T17:58:57.493Z,4.13
2022-08-29T18:01:24.673Z,2.20
2022-08-29T18:03:51.985Z,1.77
2022-08-29T18:06:19.290Z,1.50
2022-08-29T18:08:48.501Z,2.22
2022-08-29T18:11:17.257Z,5.25
2022-08-29T18:13:44.897Z,2.22
2022-08-29T18:16:12.956Z,1.85
2022-08-29T18:18:41.286Z,1.45
2022-08-29T18:21:09.139Z,2.90
2022-08-29T18:23:37.591Z,4.35
2022-08-29T18:26:06.306Z,4.63
2022-08-29T18:28:34.532Z,2.20
2022-08-29T18:31:03.316Z,3.35
2022-08-29T18:33:44.217Z,2.00
2022-08-29T18:36:17.755Z,4.70
2022-08-29T18:38:45.627Z,4.03
2022-08-29T18:41:13.456Z,2.20
2022-08-29T18:43:40.493Z,4.70
2022-08-29T18:46:12.290Z,2.70
2022-08-29T18:48:46.728Z,3.67
2022-08-29T18:51:15.220Z,2.03
2022-08-29T18:53:43.027Z,2.55
2022-08-29T18:56:10.113Z,1.73
2022-08-29T18:58:38.262Z,3.92
2022-08-29T19:01:27.932Z,4.95
2022-08-29T19:04:00.239Z,2.03
2022-08-29T19:06:27.943Z,3.22
2022-08-29T19:08:56.514Z,2.72
2022-08-29T19:11:24.514Z,1.90
2022-08-29T19:13:52.247Z,4.03
2022-08-29T19:16:21.038Z,2.58
2022-08-29T19:18:48.480Z,4.45
2022-08-29T19:21:15.647Z,3.22
2022-08-29T19:23:45.969Z,3.75
2022-08-29T19:26:28.527Z,5.05
2022-08-29T19:28:59.031Z,5.20
2022-08-29T19:31:27.645Z,3.78
2022-08-29T19:33:55.058Z,5.20
2022-08-29T19:36:24.860Z,1.90
2022-08-29T19:38:51.887Z,3.13
2022-08-29T19:41:19.260Z,2.95
2022-08-29T19:43:46.159Z,3.63
2022-08-29T19:46:17.932Z,2.15
2022-08-29T19:48:48.624Z,4.95
2022-08-29T19:51:21.041Z,4.05
2022-08-29T19:53:48.831Z,2.35
2022-08-29T19:56:17.202Z,3.13
2022-08-29T19:58:44.341Z,3.92
2022-08-29T20:01:11.654Z,6.00
2022-08-29T20:03:41.028Z,2.33
2022-08-29T20:06:09.205Z,4.97
2022-08-29T20:08:46.094Z,2.97
2022-08-29T20:11:21.062Z,2.63
2022-08-29T20:13:51.063Z,3.13
2022-08-29T20:16:21.594Z,3.92
2022-08-29T20:18:52.257Z,1.88
2022-08-29T20:21:20.896Z,3.58
2022-08-29T20:23:54.719Z,4.25
2022-08-29T20:26:25.465Z,2.53
2022-08-29T20:28:54.097Z,6.15
2022-08-29T20:31:21.976Z,6.25
2022-08-29T20:33:49.123Z,4.47
2022-08-29T20:36:39.240Z,2.53
2022-08-29T20:39:11.300Z,3.55
2022-08-29T20:41:38.369Z,3.55
2022-08-29T20:44:10.175Z,4.22
2022-08-29T20:46:40.411Z,2.83
2022-08-29T20:49:12.466Z,3.85
2022-08-29T20:51:43.261Z,6.22
2022-08-29T20:54:14.932Z,1.95
2022-08-29T20:56:42.399Z,2.25
2022-08-29T20:59:10.382Z,1.67
2022-08-29T21:01:38.741Z,2.33
2022-08-29T21:04:26.636Z,3.90
2022-08-29T21:06:54.813Z,2.60
2022-08-29T21:09:22.594Z,4.07
2022-08-29T21:11:50.300Z,4.07
2022-08-29T21:14:17.658Z,4.35
2022-08-29T21:16:44.872Z,5.65
2022-08-29T21:19:12.698Z,4.45
2022-08-29T21:21:40.790Z,5.80
2022-08-29T21:24:10.478Z,3.50
2022-08-29T21:26:38.601Z,3.75
2022-08-29T21:29:07.365Z,6.95
2022-08-29T21:31:35.078Z,3.70
2022-08-29T21:34:06.371Z,6.13
2022-08-29T21:36:36.109Z,5.05
2022-08-29T21:39:05.256Z,3.67
2022-08-29T21:41:33.532Z,3.67
2022-08-29T21:44:00.424Z,5.78
2022-08-29T21:46:30.500Z,3.00
2022-08-29T21:49:00.186Z,4.22
2022-08-29T21:51:29.706Z,3.40
2022-08-29T21:53:57.809Z,4.82
2022-08-29T21:56:27.750Z,2.92
2022-08-29T21:58:56.152Z,2.72
2022-08-29T22:01:27.231Z,3.70
2022-08-29T22:03:54.855Z,2.05
2022-08-29T22:06:22.541Z,3.30
2022-08-29T22:08:49.561Z,3.55
2022-08-29T22:11:37.491Z,3.97
2022-08-29T22:14:07.592Z,2.67
2022-08-29T22:16:37.021Z,1.67
2022-08-29T22:19:06.613Z,2.60
2022-08-29T22:21:37.918Z,2.20
2022-08-29T22:24:06.911Z,4.78
2022-08-29T22:26:35.417Z,8.45
2022-08-29T22:29:02.690Z,1.92
2022-08-29T22:31:31.326Z,2.10
2022-08-29T22:33:59.910Z,2.95
2022-08-29T22:36:27.130Z,2.92
2022-08-29T22:38:56.521Z,1.92
2022-08-29T22:41:25.391Z,7.55
2022-08-29T22:44:31.696Z,4.13
2022-08-29T22:46:44.496Z,2.75
2022-08-29T22:49:11.675Z,2.40
2022-08-29T22:51:38.577Z,4.65
2022-08-29T22:54:24.405Z,4.13
2022-08-29T22:56:54.491Z,3.42
2022-08-29T22:59:23.741Z,2.45
2022-08-29T23:01:50.666Z,2.72
2022-08-29T23:04:19.090Z,3.45
2022-08-29T23:06:46.471Z,3.58
2022-08-29T23:09:13.572Z,2.53
2022-08-29T23:11:40.806Z,2.17
2022-08-29T23:14:08.424Z,5.80
2022-08-29T23:16:40.152Z,4.57
2022-08-29T23:19:07.212Z,3.83
2022-08-29T23:21:34.820Z,3.00
2022-08-29T23:24:07.615Z,3.15
2022-08-29T23:26:34.847Z,3.38
2022-08-29T23:29:01.916Z,1.60
2022-08-29T23:31:28.974Z,1.95
2022-08-29T23:33:55.945Z,2.55
2022-08-29T23:36:23.357Z,2.88
2022-08-29T23:38:52.769Z,6.03
2022-08-29T23:41:19.896Z,3.28
2022-08-29T23:43:46.769Z,1.48
2022-08-29T23:46:14.889Z,2.17
2022-08-29T23:48:41.824Z,2.60
2022-08-29T23:51:10.325Z,3.10
2022-08-29T23:53:38.211Z,3.80
2022-08-29T23:56:09.877Z,4.05
2022-08-29T23:58:37.024Z,2.17
